Time;durP1;ratioP1;P1;durP2;ratioP2;P2;SDS_P1;SDS_P2;PMS_P1;PMS_P2;Temp;Humidity;BMP_temperature;BMP_pressure;BME280_temperature;BME280_humidity;BME280_pressure;Samples;Min_cycle;Max_cycle;Signal;HPM_P1;HPM_P2
2023/09/27 00:00:47;;;;;;;;;;;;;;;18.29;50.73;101911.03;4962331;28;124152;-78
2023/09/27 00:03:14;;;;;;;;;;;;;;;18.26;50.75;101916.59;4959856;28;120644;-78
2023/09/27 00:05:41;;;;;;;;;;;;;;;18.22;50.70;101912.38;4956768;28;119982;-80
2023/09/27 00:08:11;;;;;;;;;;;;;;;18.19;50.82;101920.59;4965615;28;124064;-78
2023/09/27 00:10:38;;;;;;;;;;;;;;;18.16;50.78;101927.00;4971168;28;124584;-79
2023/09/27 00:13:05;;;;;;;;;;;;;;;18.13;50.87;101934.38;4964094;28;121138;-78
2023/09/27 00:15:32;;;;;;;;;;;;;;;18.09;50.72;101931.84;4967316;28;118894;-79
2023/09/27 00:17:59;;;;;;;;;;;;;;;18.05;50.74;101930.31;4967071;28;125334;-78
2023/09/27 00:20:26;;;;;;;;;;;;;;;18.03;51.03;101934.91;4965487;28;124934;-82
2023/09/27 00:22:54;;;;;;;;;;;;;;;18.01;50.96;101939.50;4965787;28;119314;-80
2023/09/27 00:25:21;;;;;;;;;;;;;;;17.96;50.95;101946.94;4970324;28;117660;-81
2023/09/27 00:27:49;;;;;;;;;;;;;;;17.95;50.92;101950.59;4957015;28;124119;-80
2023/09/27 00:30:16;;;;;;;;;;;;;;;17.92;51.03;101961.47;4964279;28;122820;-79
2023/09/27 00:32:46;;;;;;;;;;;;;;;17.90;50.96;101952.66;4966901;28;118391;-80
2023/09/27 00:35:22;;;;;;;;;;;;;;;17.85;50.95;101949.38;4964066;28;119432;-81
2023/09/27 00:37:51;;;;;;;;;;;;;;;17.82;50.99;101954.88;4956320;28;123168;-79
2023/09/27 00:40:21;;;;;;;;;;;;;;;17.79;50.81;101949.72;4962931;28;124391;-80
2023/09/27 00:42:48;;;;;;;;;;;;;;;17.77;50.93;101940.91;4960719;28;119789;-80
2023/09/27 00:45:17;;;;;;;;;;;;;;;17.75;51.06;101937.44;4967759;28;118440;-78
2023/09/27 00:47:45;;;;;;;;;;;;;;;17.73;50.99;101934.00;4966182;28;124818;-77
2023/09/27 00:50:12;;;;;;;;;;;;;;;17.71;51.21;101932.25;4963864;28;123661;-81
2023/09/27 00:52:40;;;;;;;;;;;;;;;17.69;51.28;101931.47;4966448;28;120480;-79
2023/09/27 00:55:11;;;;;;;;;;;;;;;17.69;51.32;101939.53;4956300;28;120223;-79
2023/09/27 00:57:39;;;;;;;;;;;;;;;17.70;51.21;101946.59;4959522;28;123860;-81
2023/09/27 01:00:10;;;;;;;;;;;;;;;17.71;51.11;101959.06;4962592;28;124233;-81
2023/09/27 01:02:38;;;;;;;;;;;;;;;17.71;51.11;101959.06;4962931;28;119970;-78
2023/09/27 01:05:08;;;;;;;;;;;;;;;17.71;51.10;101953.69;4962348;28;118727;-78
2023/09/27 01:07:37;;;;;;;;;;;;;;;17.70;51.17;101935.88;4958355;28;124762;-79
2023/09/27 01:10:06;;;;;;;;;;;;;;;17.70;51.06;101935.00;4953774;28;123741;-78
2023/09/27 01:12:33;;;;;;;;;;;;;;;17.69;51.21;101934.16;4964304;28;118523;-80
2023/09/27 01:15:00;;;;;;;;;;;;;;;17.68;51.24;101927.06;4965263;28;119633;-81
2023/09/27 01:17:27;;;;;;;;;;;;;;;17.68;51.23;101926.19;4964700;28;124205;-78
2023/09/27 01:19:54;;;;;;;;;;;;;;;17.68;51.27;101927.06;4974005;28;123864;-79
2023/09/27 01:22:22;;;;;;;;;;;;;;;17.67;51.31;101928.03;4964119;28;120124;-79
2023/09/27 01:24:50;;;;;;;;;;;;;;;17.67;51.16;101925.34;4966890;28;118804;-80
2023/09/27 01:27:18;;;;;;;;;;;;;;;17.65;51.27;101921.91;4949154;28;123753;-80
2023/09/27 01:29:45;;;;;;;;;;;;;;;17.62;51.33;101924.75;4957588;28;124624;-79
2023/09/27 01:32:12;;;;;;;;;;;;;;;17.60;51.20;101923.97;4963290;28;120400;-79
2023/09/27 01:34:40;;;;;;;;;;;;;;;17.58;51.52;101915.16;4965556;28;117564;-79
2023/09/27 01:37:08;;;;;;;;;;;;;;;17.55;51.35;101915.31;4966521;28;125147;-79
2023/09/27 01:39:35;;;;;;;;;;;;;;;17.54;51.24;101913.63;4964988;28;122894;-80
2023/09/27 01:42:03;;;;;;;;;;;;;;;17.51;51.35;101913.78;4964115;28;119587;-78
2023/09/27 01:44:31;;;;;;;;;;;;;;;17.49;51.43;101911.19;4964516;28;119414;-78
2023/09/27 01:46:58;;;;;;;;;;;;;;;17.47;51.37;101901.53;4965510;28;124698;-79
2023/09/27 01:49:25;;;;;;;;;;;;;;;17.43;51.22;101883.91;4964123;28;123412;-79
2023/09/27 01:51:52;;;;;;;;;;;;;;;17.41;51.37;101880.44;4963362;28;119671;-78
2023/09/27 01:54:19;;;;;;;;;;;;;;;17.40;51.36;101878.72;4963421;28;117583;-79
2023/09/27 01:56:46;;;;;;;;;;;;;;;17.38;51.38;101877.94;4962607;28;124807;-79
2023/09/27 01:59:13;;;;;;;;;;;;;;;17.37;51.32;101886.94;4959895;28;123126;-80
2023/09/27 02:01:40;;;;;;;;;;;;;;;17.36;51.39;101887.88;4956874;28;118633;-79
2023/09/27 02:04:08;;;;;;;;;;;;;;;17.32;51.49;101877.34;4958752;28;118488;-79
2023/09/27 02:06:35;;;;;;;;;;;;;;;17.31;51.44;101869.41;4961110;28;124412;-78
2023/09/27 02:09:02;;;;;;;;;;;;;;;17.29;51.43;101880.19;4967866;28;123997;-79
2023/09/27 02:11:29;;;;;;;;;;;;;;;17.26;51.41;101877.69;4948089;28;118880;-79
2023/09/27 02:13:56;;;;;;;;;;;;;;;17.25;51.26;101883.13;4965781;28;119070;-80
2023/09/27 02:16:23;;;;;;;;;;;;;;;17.22;51.53;101892.19;4966572;28;124436;-79
2023/09/27 02:18:50;;;;;;;;;;;;;;;17.18;51.64;101896.00;4956305;28;123603;-79
2023/09/27 02:21:18;;;;;;;;;;;;;;;17.14;51.33;101889.09;4956977;28;119787;-79
2023/09/27 02:23:45;;;;;;;;;;;;;;;17.11;51.30;101886.59;4961566;28;117970;-81
2023/09/27 02:26:12;;;;;;;;;;;;;;;17.08;51.45;101889.44;4963996;28;124395;-79
2023/09/27 02:28:41;;;;;;;;;;;;;;;17.07;51.37;101890.38;4955343;28;125556;-79
2023/09/27 02:31:12;;;;;;;;;;;;;;;17.03;51.44;101891.50;4973569;28;123227;-81
2023/09/27 02:33:39;;;;;;;;;;;;;;;17.02;51.62;101895.13;4962393;28;120214;-78
2023/09/27 02:36:06;;;;;;;;;;;;;;;17.00;51.43;101897.03;4965620;28;124835;-78
2023/09/27 02:38:35;;;;;;;;;;;;;;;16.96;51.50;101887.44;4959703;28;124906;-78
2023/09/27 02:41:03;;;;;;;;;;;;;;;16.92;51.49;101892.97;4967645;28;119633;-81
2023/09/27 02:43:30;;;;;;;;;;;;;;;16.91;51.51;101893.03;4961488;28;119044;-79
2023/09/27 02:45:57;;;;;;;;;;;;;;;16.90;51.75;101897.53;4970353;28;124278;-79
2023/09/27 02:48:24;;;;;;;;;;;;;;;16.88;51.56;101894.06;4963753;28;123099;-81
2023/09/27 02:50:55;;;;;;;;;;;;;;;16.85;51.80;101899.59;4967214;28;120479;-78
2023/09/27 02:53:22;;;;;;;;;;;;;;;16.85;51.66;101899.59;4954972;28;119519;-78
2023/09/27 02:55:49;;;;;;;;;;;;;;;16.83;51.71;101901.47;4959158;28;124338;-79
2023/09/27 02:58:16;;;;;;;;;;;;;;;16.82;51.82;101898.84;4953451;28;122919;-79
2023/09/27 03:00:43;;;;;;;;;;;;;;;16.82;51.65;101898.84;4973905;28;120344;-79
2023/09/27 03:03:10;;;;;;;;;;;;;;;16.80;52.03;101907.00;4978462;28;120483;-80
2023/09/27 03:05:38;;;;;;;;;;;;;;;16.78;51.64;101898.16;4942898;28;124858;-78
2023/09/27 03:08:06;;;;;;;;;;;;;;;16.77;51.82;101900.94;4966882;28;125335;-79
2023/09/27 03:10:38;;;;;;;;;;;;;;;16.76;51.71;101894.69;4962523;28;120924;-79
2023/09/27 03:13:07;;;;;;;;;;;;;;;16.75;51.80;101898.34;4967215;28;118209;-79
2023/09/27 03:15:35;;;;;;;;;;;;;;;16.74;51.61;101907.28;4965484;28;124959;-80
2023/09/27 03:18:02;;;;;;;;;;;;;;;16.74;51.91;101904.63;4955605;28;123482;-79
2023/09/27 03:20:31;;;;;;;;;;;;;;;16.74;51.82;101901.94;4964568;28;120664;-78
2023/09/27 03:22:59;;;;;;;;;;;;;;;16.73;51.75;101898.41;4964836;28;119178;-78
2023/09/27 03:25:27;;;;;;;;;;;;;;;16.73;51.90;101900.25;4961801;28;123843;-81
2023/09/27 03:27:54;;;;;;;;;;;;;;;16.73;51.95;101889.53;4968156;28;125003;-78
2023/09/27 03:30:21;;;;;;;;;;;;;;;16.73;51.78;101889.53;4960636;28;119775;-79
2023/09/27 03:32:48;;;;;;;;;;;;;;;16.72;51.76;101890.47;4957759;28;118090;-79
2023/09/27 03:35:16;;;;;;;;;;;;;;;16.72;51.72;101887.78;4956895;28;123953;-79
2023/09/27 03:37:44;;;;;;;;;;;;;;;16.73;51.91;101900.25;4960422;28;125824;-79
2023/09/27 03:40:13;;;;;;;;;;;;;;;16.70;51.89;101900.38;4964757;28;119452;-78
2023/09/27 03:42:45;;;;;;;;;;;;;;;16.68;51.92;101902.28;4967324;28;120512;-79
2023/09/27 03:45:14;;;;;;;;;;;;;;;16.67;51.89;101916.59;4965810;28;125324;-78
2023/09/27 03:47:44;;;;;;;;;;;;;;;16.65;51.92;101918.50;4950209;28;122837;-79
2023/09/27 03:50:14;;;;;;;;;;;;;;;16.64;51.93;101927.47;4966229;28;120459;-78
2023/09/27 03:52:42;;;;;;;;;;;;;;;16.61;51.68;101927.63;4966120;28;118574;-80
2023/09/27 03:55:10;;;;;;;;;;;;;;;16.58;51.83;101923.31;4968164;28;124568;-79
2023/09/27 03:57:37;;;;;;;;;;;;;;;16.57;51.80;101920.72;4962441;28;123957;-81
2023/09/27 04:00:15;;;;;;;;;;;;;;;16.52;51.98;101924.50;4953233;28;120263;-78
2023/09/27 04:02:46;;;;;;;;;;;;;;;16.52;52.09;101929.84;4954551;28;119741;-78
2023/09/27 04:05:14;;;;;;;;;;;;;;;16.50;51.98;101937.09;4934699;28;125551;-80
2023/09/27 04:07:41;;;;;;;;;;;;;;;16.50;52.11;101941.56;4959446;28;124980;-80
2023/09/27 04:10:09;;;;;;;;;;;;;;;16.49;51.92;101946.06;4967519;28;121091;-79
2023/09/27 04:12:39;;;;;;;;;;;;;;;16.49;51.91;101947.88;4963107;28;119435;-80
2023/09/27 04:15:09;;;;;;;;;;;;;;;16.48;51.93;101944.34;4967397;28;124638;-80
2023/09/27 04:17:37;;;;;;;;;;;;;;;16.47;52.09;101939.06;4966888;28;123690;-79
2023/09/27 04:20:13;;;;;;;;;;;;;;;16.46;51.86;101937.31;4955958;28;119498;-81
2023/09/27 04:22:43;;;;;;;;;;;;;;;16.43;51.81;101927.66;4953070;28;118899;-78
2023/09/27 04:25:14;;;;;;;;;;;;;;;16.41;52.12;101931.38;4960213;28;124238;-80
2023/09/27 04:27:43;;;;;;;;;;;;;;;16.37;51.84;101930.66;4949935;28;123245;-78
2023/09/27 04:30:11;;;;;;;;;;;;;;;16.34;51.93;101937.00;4956684;28;119657;-79
2023/09/27 04:32:39;;;;;;;;;;;;;;;16.32;51.97;101932.69;4965897;28;119853;-78
2023/09/27 04:35:08;;;;;;;;;;;;;;;16.30;51.93;101934.59;4961676;28;124995;-80
2023/09/27 04:37:39;;;;;;;;;;;;;;;16.29;52.17;101938.19;4959373;28;123300;-80
2023/09/27 04:40:10;;;;;;;;;;;;;;;16.27;52.41;101934.75;4961109;28;118896;-81
2023/09/27 04:42:38;;;;;;;;;;;;;;;16.26;52.17;101928.53;4966011;28;118751;-80
2023/09/27 04:45:06;;;;;;;;;;;;;;;16.26;52.17;101922.34;4961838;28;124149;-78
2023/09/27 04:47:33;;;;;;;;;;;;;;;16.25;52.30;101932.13;4965502;28;123895;-79
2023/09/27 04:50:00;;;;;;;;;;;;;;;16.25;52.24;101931.28;4965656;28;119500;-80
2023/09/27 04:52:27;;;;;;;;;;;;;;;16.24;52.24;101940.25;4965658;28;119788;-79
2023/09/27 04:54:56;;;;;;;;;;;;;;;16.23;52.16;101954.56;4966724;28;124345;-79
2023/09/27 04:57:24;;;;;;;;;;;;;;;16.22;52.20;101958.16;4964811;28;124597;-80
2023/09/27 04:59:52;;;;;;;;;;;;;;;16.19;52.28;101953.84;4964235;28;120367;-78
2023/09/27 05:02:20;;;;;;;;;;;;;;;16.19;52.20;101956.53;4962274;28;121056;-78
2023/09/27 05:04:47;;;;;;;;;;;;;;;16.20;52.12;101965.41;4958381;28;123831;-79
2023/09/27 05:07:16;;;;;;;;;;;;;;;16.17;52.09;101960.22;4959412;28;123944;-79
2023/09/27 05:09:43;;;;;;;;;;;;;;;16.15;52.21;101953.13;4964839;28;119431;-81
2023/09/27 05:12:10;;;;;;;;;;;;;;;16.12;52.09;101937.28;4965076;28;118618;-78
2023/09/27 05:14:36;;;;;;;;;;;;;;;16.11;52.12;101919.50;4966617;28;124055;-81
2023/09/27 05:17:04;;;;;;;;;;;;;;;16.07;52.14;101907.25;4954341;28;123938;-79
2023/09/27 05:19:31;;;;;;;;;;;;;;;16.03;52.30;101924.38;4958770;28;120355;-79
2023/09/27 05:21:58;;;;;;;;;;;;;;;16.00;52.19;101943.22;4955012;28;119590;-78
2023/09/27 05:24:25;;;;;;;;;;;;;;;15.98;52.30;101945.13;4962104;28;124264;-79
2023/09/27 05:26:52;;;;;;;;;;;;;;;15.96;52.27;101920.28;4959832;28;124124;-79
2023/09/27 05:29:20;;;;;;;;;;;;;;;15.96;52.40;101909.59;4952587;28;120428;-79
2023/09/27 05:31:47;;;;;;;;;;;;;;;15.97;52.47;101927.34;4953587;28;118580;-80
2023/09/27 05:34:14;;;;;;;;;;;;;;;15.99;52.41;101935.28;4953739;28;124581;-79
2023/09/27 05:36:41;;;;;;;;;;;;;;;16.00;52.40;101935.22;4961927;28;124891;-80
2023/09/27 05:39:09;;;;;;;;;;;;;;;16.01;52.60;101933.41;4955393;28;119473;-79
2023/09/27 05:41:52;;;;;;;;;;;;;;;16.02;52.61;101930.66;4966387;28;119210;-78
2023/09/27 05:44:19;;;;;;;;;;;;;;;16.03;52.60;101924.38;4969963;28;124158;-80
2023/09/27 05:46:46;;;;;;;;;;;;;;;16.04;52.50;101934.09;4970224;28;124165;-79
2023/09/27 05:49:14;;;;;;;;;;;;;;;16.04;52.56;101943.94;4959231;28;120284;-78
2023/09/27 05:51:43;;;;;;;;;;;;;;;16.04;52.50;101936.78;4973759;28;120780;-81
2023/09/27 05:54:10;;;;;;;;;;;;;;;16.05;52.45;101930.50;4969825;28;124136;-80
2023/09/27 05:56:37;;;;;;;;;;;;;;;16.04;52.48;101923.41;4969617;28;124605;-79
2023/09/27 05:59:08;;;;;;;;;;;;;;;16.03;52.53;101927.06;4969794;28;120288;-79
2023/09/27 06:01:35;;;;;;;;;;;;;;;16.03;52.61;101920.81;4964287;28;118359;-80
2023/09/27 06:04:02;;;;;;;;;;;;;;;16.03;52.65;101921.72;4960868;28;123643;-79
2023/09/27 06:06:30;;;;;;;;;;;;;;;16.04;52.73;101920.75;4963670;28;124432;-80
2023/09/27 06:08:57;;;;;;;;;;;;;;;16.05;52.82;101909.13;4969163;28;120326;-79
2023/09/27 06:11:24;;;;;;;;;;;;;;;16.08;52.79;101908.94;4967588;28;119055;-79
2023/09/27 06:13:51;;;;;;;;;;;;;;;16.13;52.79;101912.25;4967949;28;124242;-78
2023/09/27 06:16:19;;;;;;;;;;;;;;;16.18;52.76;101913.81;4961954;28;123784;-79
2023/09/27 06:18:47;;;;;;;;;;;;;;;16.20;52.85;101922.63;4964163;28;121307;-79
2023/09/27 06:21:14;;;;;;;;;;;;;;;16.23;52.91;101927.81;4967236;28;121046;-78
2023/09/27 06:23:41;;;;;;;;;;;;;;;16.27;52.83;101935.59;4961294;28;123730;-79
2023/09/27 06:26:09;;;;;;;;;;;;;;;16.31;52.80;101925.63;4964084;28;123817;-79
2023/09/27 06:28:39;;;;;;;;;;;;;;;16.34;52.80;101930.81;4956777;28;120484;-80
2023/09/27 06:31:06;;;;;;;;;;;;;;;16.38;52.88;101927.03;4952832;28;121257;-78
2023/09/27 06:33:34;;;;;;;;;;;;;;;16.42;52.74;101923.25;4961930;28;124491;-79
2023/09/27 06:36:02;;;;;;;;;;;;;;;16.46;52.92;101922.16;4963358;28;125234;-79
2023/09/27 06:38:29;;;;;;;;;;;;;;;16.51;52.81;101922.75;4976061;28;120992;-78
2023/09/27 06:40:57;;;;;;;;;;;;;;;16.56;52.82;101925.22;4961868;28;117978;-78
2023/09/27 06:43:31;;;;;;;;;;;;;;;16.60;52.96;101920.56;4973526;28;123442;-79
2023/09/27 06:46:01;;;;;;;;;;;;;;;16.67;53.18;101911.25;4963369;28;122893;-78
2023/09/27 06:48:28;;;;;;;;;;;;;;;16.75;53.17;101909.03;4963205;28;119434;-79
2023/09/27 06:50:56;;;;;;;;;;;;;;;16.86;53.18;101913.84;4968670;28;118797;-81
2023/09/27 06:53:23;;;;;;;;;;;;;;;16.96;53.25;101916.88;4969194;28;125384;-79
2023/09/27 06:55:56;;;;;;;;;;;;;;;17.08;53.40;101926.91;4968823;28;123872;-78
2023/09/27 06:58:24;;;;;;;;;;;;;;;17.23;53.45;101923.38;4967654;28;118882;-78
2023/09/27 07:00:52;;;;;;;;;;;;;;;17.40;53.46;101926.91;4940506;28;119671;-79
2023/09/27 07:03:24;;;;;;;;;;;;;;;17.56;53.61;101924.25;4961324;28;124612;-79
2023/09/27 07:05:52;;;;;;;;;;;;;;;17.75;53.77;101916.00;4960394;28;124259;-79
2023/09/27 07:08:20;;;;;;;;;;;;;;;17.94;53.79;101911.31;4962181;28;118738;-79
2023/09/27 07:10:47;;;;;;;;;;;;;;;18.13;53.71;101920.97;4972033;28;120090;-79
2023/09/27 07:13:15;;;;;;;;;;;;;;;18.25;53.51;101914.84;4969782;28;122899;-79
2023/09/27 07:15:45;;;;;;;;;;;;;;;18.35;53.34;101916.03;4968863;28;124172;-79
2023/09/27 07:18:13;;;;;;;;;;;;;;;18.40;53.07;101919.31;4951465;28;120657;-81
2023/09/27 07:20:41;;;;;;;;;;;;;;;18.48;53.15;101917.00;4948965;28;119128;-80
2023/09/27 07:23:14;;;;;;;;;;;;;;;18.61;53.32;101900.13;4948346;28;124276;-81
2023/09/27 07:25:42;;;;;;;;;;;;;;;18.74;53.49;101901.13;4970419;28;123099;-79
2023/09/27 07:28:10;;;;;;;;;;;;;;;18.85;53.41;101898.66;4948921;28;121461;-78
2023/09/27 07:30:37;;;;;;;;;;;;;;;18.96;53.36;101910.53;4966371;28;119772;-79
2023/09/27 07:33:10;;;;;;;;;;;;;;;19.09;53.36;101922.19;4962849;28;123859;-78
2023/09/27 07:35:41;;;;;;;;;;;;;;;19.22;53.16;101930.34;4947141;28;123977;-79
2023/09/27 07:38:10;;;;;;;;;;;;;;;19.32;53.11;101939.50;4962048;28;119285;-79
2023/09/27 07:40:38;;;;;;;;;;;;;;;19.39;53.15;101940.00;4966501;28;118114;-79
2023/09/27 07:43:05;;;;;;;;;;;;;;;19.47;53.05;101952.94;4953253;28;125135;-79
2023/09/27 07:45:35;;;;;;;;;;;;;;;19.51;52.99;101944.56;4961499;28;124139;-79
2023/09/27 07:48:03;;;;;;;;;;;;;;;19.56;53.11;101931.69;4950717;28;119529;-79
2023/09/27 07:50:33;;;;;;;;;;;;;;;19.62;53.04;101931.28;4973354;28;118993;-79
2023/09/27 07:53:03;;;;;;;;;;;;;;;19.65;52.99;101931.09;4955321;28;125378;-79
2023/09/27 07:55:33;;;;;;;;;;;;;;;19.69;52.90;101920.16;4966224;28;123378;-79
2023/09/27 07:58:03;;;;;;;;;;;;;;;19.74;52.96;101918.03;4968196;28;119682;-79
2023/09/27 08:00:31;;;;;;;;;;;;;;;19.81;52.99;101919.34;4966393;28;119553;-79
2023/09/27 08:02:58;;;;;;;;;;;;;;;19.88;53.01;101914.44;4961612;28;124183;-79
2023/09/27 08:05:26;;;;;;;;;;;;;;;19.95;53.18;101905.84;4966652;28;124924;-79
2023/09/27 08:07:53;;;;;;;;;;;;;;;20.02;53.13;101901.78;4965474;28;119936;-79
2023/09/27 08:10:22;;;;;;;;;;;;;;;20.09;53.05;101895.97;4966255;28;117523;-80
2023/09/27 08:12:49;;;;;;;;;;;;;;;20.14;53.02;101904.59;4965492;28;123896;-79
2023/09/27 08:15:17;;;;;;;;;;;;;;;20.19;53.12;101914.06;4962994;28;124735;-79
2023/09/27 08:17:47;;;;;;;;;;;;;;;20.28;53.18;101919.78;4966723;28;121174;-79
2023/09/27 08:20:15;;;;;;;;;;;;;;;20.38;53.09;101929.81;4967085;28;119508;-79
2023/09/27 08:22:42;;;;;;;;;;;;;;;20.46;53.05;101920.34;4967164;28;124131;-79
2023/09/27 08:25:16;;;;;;;;;;;;;;;20.54;53.01;101912.56;4947731;28;126390;-79
2023/09/27 08:27:44;;;;;;;;;;;;;;;20.62;53.04;101921.00;4960249;28;119232;-79
2023/09/27 08:30:11;;;;;;;;;;;;;;;20.69;53.10;101910.66;4961035;28;118193;-79
2023/09/27 08:32:40;;;;;;;;;;;;;;;20.74;52.95;101917.44;4979021;28;124100;-79
2023/09/27 08:35:08;;;;;;;;;;;;;;;20.83;53.06;101918.59;4965036;28;124074;-79
2023/09/27 08:37:36;;;;;;;;;;;;;;;20.95;53.09;101911.50;4949287;28;120053;-79
2023/09/27 08:40:07;;;;;;;;;;;;;;;21.07;53.16;101921.38;4967268;28;118628;-78
2023/09/27 08:42:34;;;;;;;;;;;;;;;21.20;53.18;101922.19;4961266;28;124096;-79
2023/09/27 08:45:02;;;;;;;;;;;;;;;21.33;53.12;101932.94;4967312;28;124478;-79
2023/09/27 08:47:30;;;;;;;;;;;;;;;21.46;53.10;101932.09;4967005;28;118744;-78
2023/09/27 08:49:58;;;;;;;;;;;;;;;21.60;52.98;101936.44;4966210;28;118578;-78
2023/09/27 08:52:27;;;;;;;;;;;;;;;21.74;53.00;101941.69;4967103;28;125423;-79
2023/09/27 08:54:54;;;;;;;;;;;;;;;21.87;52.94;101947.88;4965810;28;124211;-78
2023/09/27 08:57:22;;;;;;;;;;;;;;;22.01;52.90;101948.66;4967180;28;119191;-78
2023/09/27 08:59:49;;;;;;;;;;;;;;;22.12;52.90;101951.41;4982216;28;118399;-78
2023/09/27 09:02:18;;;;;;;;;;;;;;;22.24;52.81;101966.63;4967206;28;125099;-79
2023/09/27 09:04:45;;;;;;;;;;;;;;;22.35;52.84;101969.41;4965759;28;125894;-78
2023/09/27 09:07:12;;;;;;;;;;;;;;;22.47;52.83;101967.63;4963469;28;120177;-78
2023/09/27 09:09:40;;;;;;;;;;;;;;;22.60;52.64;101963.94;4956991;28;119774;-79
2023/09/27 09:12:11;;;;;;;;;;;;;;;22.69;52.47;101953.28;4968376;28;123058;-79
2023/09/27 09:14:42;;;;;;;;;;;;;;;22.74;52.66;101951.06;4967220;28;124632;-78
2023/09/27 09:17:19;;;;;;;;;;;;;;;22.84;52.60;101948.50;4967546;28;119680;-79
2023/09/27 09:20:06;;;;;;;;;;;;;;;22.92;52.45;101950.59;4954794;28;117886;-78
2023/09/27 09:22:41;;;;;;;;;;;;;;;22.99;52.38;101951.81;4967871;28;124673;-78
2023/09/27 09:25:08;;;;;;;;;;;;;;;23.07;52.27;101943.97;4969716;28;124133;-78
2023/09/27 09:27:35;;;;;;;;;;;;;;;23.17;52.48;101937.81;4970095;28;119121;-78
2023/09/27 09:30:06;;;;;;;;;;;;;;;23.31;52.45;101940.28;4970161;28;120029;-79
2023/09/27 09:32:33;;;;;;;;;;;;;;;23.41;52.52;101930.41;4967924;28;123204;-79
2023/09/27 09:35:00;;;;;;;;;;;;;;;23.51;52.20;101925.97;4966622;28;123422;-79
2023/09/27 09:37:30;;;;;;;;;;;;;;;23.62;52.12;101921.50;4970152;28;120309;-78
2023/09/27 09:40:14;;;;;;;;;;;;;;;23.68;52.24;101923.72;4959806;28;118667;-78
2023/09/27 09:42:42;;;;;;;;;;;;;;;23.73;51.95;101913.34;4963616;28;124272;-78
2023/09/27 09:45:12;;;;;;;;;;;;;;;23.77;52.13;101914.84;4969933;28;124944;-78
2023/09/27 09:47:44;;;;;;;;;;;;;;;23.81;52.00;101916.31;4969684;28;119664;-78
2023/09/27 09:50:17;;;;;;;;;;;;;;;23.86;51.85;101908.66;4970318;28;118672;-79
2023/09/27 09:52:53;;;;;;;;;;;;;;;23.92;51.79;101906.44;4970141;28;124161;-79
2023/09/27 09:55:21;;;;;;;;;;;;;;;23.98;51.88;101903.19;4971411;28;125800;-79
2023/09/27 09:58:24;;;;;;;;;;;;;;;24.05;52.07;101890.84;4959558;28;120460;-79
2023/09/27 10:00:53;;;;;;;;;;;;;;;24.11;52.10;101884.94;4965601;28;119837;-79
2023/09/27 10:03:22;;;;;;;;;;;;;;;24.19;52.03;101882.41;4968777;28;124482;-78
2023/09/27 10:05:51;;;;;;;;;;;;;;;24.23;51.90;101883.84;4969242;28;124979;-78
2023/09/27 10:08:18;;;;;;;;;;;;;;;24.25;51.98;101876.47;4963014;28;120089;-78
2023/09/27 10:10:47;;;;;;;;;;;;;;;24.31;51.91;101879.63;4969571;28;119210;-78
2023/09/27 10:13:14;;;;;;;;;;;;;;;24.35;51.86;101875.66;4968154;28;124547;-78
2023/09/27 10:15:42;;;;;;;;;;;;;;;24.40;51.62;101868.00;4967067;28;123943;-78
2023/09/27 10:18:21;;;;;;;;;;;;;;;24.48;51.61;101854.63;4969664;28;119717;-77
2023/09/27 10:21:05;;;;;;;;;;;;;;;24.56;51.75;101862.97;4971409;28;118287;-78
2023/09/27 10:23:47;;;;;;;;;;;;;;;24.60;51.75;101848.19;4966109;28;124773;-78
2023/09/27 10:26:22;;;;;;;;;;;;;;;24.68;51.82;101848.34;4957778;28;124641;-78
2023/09/27 10:29:13;;;;;;;;;;;;;;;24.78;51.86;101844.81;4962844;28;119837;-78
2023/09/27 10:32:01;;;;;;;;;;;;;;;24.92;51.60;101847.16;4951979;28;118738;-79
2023/09/27 10:34:28;;;;;;;;;;;;;;;25.02;51.99;101837.16;4954070;28;123200;-78
2023/09/27 10:36:56;;;;;;;;;;;;;;;25.14;51.78;101834.34;4960589;28;124436;-78
2023/09/27 10:40:07;;;;;;;;;;;;;;;25.27;51.59;101834.94;4966025;28;119434;-79
2023/09/27 10:42:43;;;;;;;;;;;;;;;25.43;51.73;101835.25;4955634;28;119089;-78
2023/09/27 10:45:10;;;;;;;;;;;;;;;25.58;51.77;101829.38;4967253;28;126114;-78
2023/09/27 10:47:37;;;;;;;;;;;;;;;25.74;51.61;101826.94;4965610;28;125000;-78
2023/09/27 10:50:05;;;;;;;;;;;;;;;25.87;51.61;101825.81;4961320;28;120319;-79
2023/09/27 10:52:32;;;;;;;;;;;;;;;25.96;51.00;101830.41;4963282;28;120504;-78
2023/09/27 10:55:09;;;;;;;;;;;;;;;26.01;51.37;101838.94;4974920;28;124088;-78
2023/09/27 10:57:39;;;;;;;;;;;;;;;26.08;51.15;101823.78;4967299;28;125836;-78
2023/09/27 11:00:12;;;;;;;;;;;;;;;26.15;50.94;101814.03;4961389;28;120442;-78
2023/09/27 11:02:39;;;;;;;;;;;;;;;26.19;51.09;101820.88;4968631;28;119161;-78
2023/09/27 11:05:08;;;;;;;;;;;;;;;26.24;51.00;101817.75;4963403;28;124070;-79
2023/09/27 11:07:42;;;;;;;;;;;;;;;26.27;50.65;101805.72;4972965;28;125054;-79
2023/09/27 11:10:09;;;;;;;;;;;;;;;26.31;50.59;101807.97;4967781;28;118950;-78
2023/09/27 11:12:37;;;;;;;;;;;;;;;26.32;50.73;101806.97;4963377;28;119210;-79
2023/09/27 11:15:04;;;;;;;;;;;;;;;26.32;50.42;101798.00;4968308;28;123515;-79
2023/09/27 11:17:31;;;;;;;;;;;;;;;26.33;50.64;101795.09;4965618;28;123944;-79
2023/09/27 11:20:09;;;;;;;;;;;;;;;26.36;50.52;101783.09;4961063;28;119538;-78
2023/09/27 11:22:36;;;;;;;;;;;;;;;26.40;50.43;101779.91;4968062;28;119215;-78
2023/09/27 11:25:05;;;;;;;;;;;;;;;26.42;50.63;101772.47;4962181;28;124208;-78
2023/09/27 11:27:33;;;;;;;;;;;;;;;26.43;50.44;101770.63;4964651;28;125386;-78
2023/09/27 11:30:00;;;;;;;;;;;;;;;26.45;50.28;101765.91;4967337;28;120140;-78
2023/09/27 11:32:27;;;;;;;;;;;;;;;26.47;50.41;101755.72;4968585;28;119514;-78
2023/09/27 11:34:55;;;;;;;;;;;;;;;26.44;50.42;101741.59;4964357;28;124212;-78
2023/09/27 11:37:25;;;;;;;;;;;;;;;26.41;50.13;101748.19;4964850;28;124389;-78
2023/09/27 11:39:54;;;;;;;;;;;;;;;26.39;50.08;101739.31;4961647;28;120653;-78
2023/09/27 11:42:22;;;;;;;;;;;;;;;26.36;50.02;101739.63;4963944;28;120200;-78
2023/09/27 11:45:04;;;;;;;;;;;;;;;26.34;50.06;101737.06;4966475;28;125051;-78
2023/09/27 11:47:49;;;;;;;;;;;;;;;26.36;50.21;101734.19;4967553;28;124291;-78
2023/09/27 11:50:17;;;;;;;;;;;;;;;26.39;50.07;101733.88;4966418;28;119593;-78
2023/09/27 11:52:48;;;;;;;;;;;;;;;26.40;50.08;101730.16;4966568;28;118615;-79
2023/09/27 11:55:16;;;;;;;;;;;;;;;26.43;50.43;101729.88;4966432;28;124866;-78
2023/09/27 11:57:43;;;;;;;;;;;;;;;26.47;50.23;101725.84;4950443;28;123658;-78
2023/09/27 12:00:15;;;;;;;;;;;;;;;26.53;50.45;101708.09;4967386;28;119408;-78
2023/09/27 12:03:14;;;;;;;;;;;;;;;26.56;50.21;101697.78;5084239;27;97413;-67
2023/09/27 12:05:42;;;;;;;;;;;;;;;26.49;50.14;101693.94;5050756;27;105783;-67
2023/09/27 12:08:10;;;;;;;;;;;;;;;26.47;50.35;101687.81;5056065;27;125088;-67
2023/09/27 12:10:37;;;;;;;;;;;;;;;26.50;50.45;101692.91;5045915;27;122973;-67
2023/09/27 12:13:05;;;;;;;;;;;;;;;26.55;50.22;101696.03;5064618;27;107776;-67
2023/09/27 12:15:32;;;;;;;;;;;;;;;26.56;49.98;101686.03;5055388;27;107163;-67
2023/09/27 12:17:59;;;;;;;;;;;;;;;26.57;50.05;101688.59;5051004;27;124386;-67
2023/09/27 12:20:27;;;;;;;;;;;;;;;26.63;50.25;101686.31;5048250;27;124240;-67
2023/09/27 12:23:08;;;;;;;;;;;;;;;26.71;50.48;101689.09;5061045;27;108631;-67
2023/09/27 12:25:36;;;;;;;;;;;;;;;26.78;50.13;101673.88;5045895;27;105109;-67
2023/09/27 12:28:04;;;;;;;;;;;;;;;26.84;50.39;101677.84;5049381;27;123245;-67
2023/09/27 12:30:31;;;;;;;;;;;;;;;26.89;50.11;101670.94;5037775;27;123085;-67
2023/09/27 12:32:58;;;;;;;;;;;;;;;26.91;49.90;101668.91;5058578;27;107595;-67
2023/09/27 12:35:26;;;;;;;;;;;;;;;26.89;49.88;101664.66;5060538;27;106967;-67
2023/09/27 12:37:53;;;;;;;;;;;;;;;26.86;49.63;101665.81;5069355;27;124306;-67